createdAt,value
2019-01-06T00:00:13.771Z,3.70
2019-01-06T00:03:18.725Z,3.70
2019-01-06T00:06:06.985Z,3.70
2019-01-06T00:09:02.438Z,3.70
2019-01-06T00:11:56.720Z,3.70
2019-01-06T00:14:49.941Z,3.70
2019-01-06T00:17:46.604Z,3.70
2019-01-06T00:20:35.174Z,3.70
2019-01-06T00:23:39.838Z,3.70
2019-01-06T00:26:38.230Z,3.70
2019-01-06T00:29:33.676Z,3.60
2019-01-06T00:32:38.289Z,3.60
2019-01-06T00:35:33.210Z,3.60
2019-01-06T00:38:21.420Z,3.60
2019-01-06T00:41:13.731Z,3.60
2019-01-06T00:43:59.671Z,3.60
2019-01-06T00:46:47.953Z,3.60
2019-01-06T00:49:36.062Z,3.60
2019-01-06T00:52:28.724Z,3.50
2019-01-06T00:55:25.646Z,3.60
2019-01-06T00:58:13.857Z,3.60
2019-01-06T07:27:09.193Z,3.10
2019-01-06T07:30:07.946Z,3.10
2019-01-06T07:33:00.538Z,3.10
2019-01-06T07:35:49.029Z,3.10
2019-01-06T07:38:41.481Z,3.10
2019-01-06T07:41:31.080Z,3.10
2019-01-06T07:44:19.571Z,3.10
2019-01-06T07:47:07.171Z,3.10
2019-01-06T07:50:11.695Z,3.10
2019-01-06T07:52:59.816Z,3.20
2019-01-06T07:55:48.155Z,3.20
2019-01-06T07:58:32.257Z,3.20
2019-01-06T08:01:31.091Z,3.10
2019-01-06T08:04:19.748Z,3.10
2019-01-06T08:07:06.380Z,3.10
2019-01-06T08:10:04.861Z,3.10
2019-01-06T08:12:50.960Z,3.10
2019-01-06T08:15:39.605Z,3.10
2019-01-06T08:18:29.182Z,3.10
2019-01-06T08:21:27.076Z,3.20
2019-01-06T08:24:16.685Z,3.20
2019-01-06T08:27:15.148Z,3.20
2019-01-06T08:30:03.699Z,3.20
2019-01-06T08:32:56.080Z,3.20
2019-01-06T08:35:44.310Z,3.20
2019-01-06T08:38:42.832Z,3.20
2019-01-06T08:41:25.991Z,3.20
2019-01-06T08:44:31.156Z,3.20
2019-01-06T08:47:19.546Z,3.20
2019-01-06T08:50:21.533Z,3.20
2019-01-06T08:53:11.810Z,3.20
2019-01-06T08:56:07.222Z,3.30
2019-01-06T08:59:12.077Z,3.30
2019-01-06T09:02:17.051Z,3.20
2019-01-06T09:05:06.672Z,3.20
2019-01-06T09:07:52.561Z,3.20
2019-01-06T09:10:36.633Z,3.30
2019-01-06T09:13:17.161Z,3.30
2019-01-06T09:16:05.730Z,3.30
2019-01-06T09:19:07.343Z,3.30
2019-01-06T09:22:12.348Z,3.30
2019-01-06T09:25:00.289Z,3.30
2019-01-06T09:27:48.528Z,3.30
2019-01-06T09:30:47.001Z,3.30
2019-01-06T09:33:35.473Z,3.30
2019-01-06T09:36:25.722Z,3.30
2019-01-06T09:39:30.567Z,3.30
2019-01-06T09:42:20.223Z,3.40
2019-01-06T09:45:21.504Z,3.40
2019-01-06T09:48:08.271Z,3.40
2019-01-06T09:51:00.322Z,3.40
2019-01-06T09:53:57.984Z,3.40
2019-01-06T09:57:04.662Z,3.40
2019-01-06T09:59:52.939Z,3.50
2019-01-06T10:02:57.434Z,3.40
2019-01-06T10:05:55.806Z,3.40
2019-01-06T10:09:01.978Z,3.50
2019-01-06T10:11:51.643Z,3.50
2019-01-06T10:14:42.054Z,3.50
2019-01-06T10:17:41.706Z,3.50
2019-01-06T10:20:34.189Z,3.50
2019-01-06T10:23:22.988Z,3.40
2019-01-06T10:26:15.409Z,3.50
2019-01-06T10:29:23.207Z,3.50
2019-01-06T10:32:22.417Z,3.50
2019-01-06T10:35:17.760Z,3.40
2019-01-06T10:38:06.079Z,3.40
2019-01-06T10:40:58.445Z,3.50
2019-01-06T10:43:48.031Z,3.40
2019-01-06T10:46:37.563Z,3.40
2019-01-06T10:49:23.442Z,3.50
2019-01-06T10:52:29.769Z,3.40
2019-01-06T10:55:18.537Z,3.40
2019-01-06T10:58:09.199Z,3.40
2019-01-06T11:01:12.152Z,3.40
2019-01-06T11:04:20.098Z,3.40
2019-01-06T11:07:28.243Z,3.50
2019-01-06T11:10:12.532Z,3.40
2019-01-06T11:13:02.143Z,3.40
2019-01-06T11:16:00.496Z,3.40
2019-01-06T11:18:49.096Z,3.40
2019-01-06T11:21:41.738Z,3.40
2019-01-06T11:24:31.359Z,3.40
2019-01-06T11:27:23.699Z,3.40
2019-01-06T11:30:12.259Z,3.40
2019-01-06T11:33:08.751Z,3.40
2019-01-06T11:36:00.484Z,3.40
2019-01-06T11:38:48.953Z,3.40
2019-01-06T11:41:41.315Z,3.40
2019-01-06T11:44:30.918Z,3.40
2019-01-06T11:47:29.299Z,3.40
2019-01-06T11:50:28.482Z,3.40
2019-01-06T11:53:18.012Z,3.50
2019-01-06T12:07:15.704Z,3.40
2019-01-06T12:10:03.945Z,3.50
2019-01-06T12:13:12.020Z,3.50
2019-01-06T12:15:59.040Z,3.50
2019-01-06T12:18:51.412Z,3.50
2019-01-06T12:21:56.067Z,3.40
2019-01-06T12:25:03.942Z,3.40
2019-01-06T12:28:05.706Z,3.50
2019-01-06T12:31:11.125Z,3.50
2019-01-06T12:34:09.642Z,3.40
2019-01-06T12:37:11.255Z,3.40
2019-01-06T12:40:03.697Z,3.40
2019-01-06T12:42:55.618Z,3.50
2019-01-06T12:45:34.227Z,3.40
2019-01-06T12:48:23.756Z,3.40
2019-01-06T12:51:28.712Z,3.40
2019-01-06T12:54:17.001Z,3.40
2019-01-06T12:57:05.153Z,3.40
2019-01-06T12:59:53.853Z,3.40
2019-01-06T13:02:42.104Z,3.40
2019-01-06T13:05:30.214Z,3.50
2019-01-06T13:08:22.609Z,3.40
2019-01-06T13:11:25.959Z,3.40
2019-01-06T13:14:21.433Z,3.40
2019-01-06T13:17:16.283Z,3.40
2019-01-06T13:20:04.478Z,3.40
2019-01-06T13:22:52.812Z,3.40
2019-01-06T13:25:41.113Z,3.40
2019-01-06T13:28:29.704Z,3.40
2019-01-06T13:31:28.556Z,3.40
2019-01-06T13:34:25.939Z,3.40
2019-01-06T13:37:14.504Z,3.40
2019-01-06T13:40:02.711Z,3.40
2019-01-06T13:43:07.885Z,3.40
2019-01-06T13:46:03.795Z,3.40
2019-01-06T13:48:53.466Z,3.40
2019-01-06T13:51:56.540Z,3.40
2019-01-06T13:54:48.945Z,3.50
2019-01-06T13:57:51.516Z,3.50
2019-01-06T14:00:53.389Z,3.50
2019-01-06T14:03:43.000Z,3.60
2019-01-06T14:06:45.113Z,3.60
2019-01-06T14:09:40.766Z,3.50
2019-01-06T14:12:29.716Z,3.50
2019-01-06T14:15:18.096Z,3.50
2019-01-06T14:18:10.707Z,3.40
2019-01-06T14:20:58.989Z,3.50
2019-01-06T14:24:00.544Z,3.40
2019-01-06T14:26:48.921Z,3.40
2019-01-06T14:29:38.503Z,3.50
2019-01-06T14:32:39.747Z,3.40
2019-01-06T14:35:38.240Z,3.40
2019-01-06T14:38:33.920Z,3.40
2019-01-06T14:41:26.262Z,3.30
2019-01-06T14:44:18.643Z,3.30
2019-01-06T14:47:06.924Z,3.30
2019-01-06T14:50:08.707Z,3.30
2019-01-06T14:52:56.888Z,3.30
2019-01-06T14:55:45.282Z,3.30
2019-01-06T14:58:33.551Z,3.30
2019-01-06T15:01:21.838Z,3.30
2019-01-06T15:04:11.449Z,3.30
2019-01-06T15:07:03.841Z,3.30
2019-01-06T15:09:52.241Z,3.30
2019-01-06T15:12:40.651Z,3.40
2019-01-06T15:15:39.236Z,3.40
2019-01-06T15:18:39.457Z,3.40
2019-01-06T15:21:31.118Z,3.40
2019-01-06T15:24:19.269Z,3.40
2019-01-06T15:27:07.499Z,3.40
2019-01-06T15:29:59.841Z,3.40
2019-01-06T15:33:07.627Z,3.40
2019-01-06T15:36:00.267Z,3.40
2019-01-06T15:38:53.318Z,3.40
2019-01-06T15:42:01.108Z,3.40
2019-01-06T15:44:56.595Z,3.40
2019-01-06T15:47:55.538Z,3.30
2019-01-06T15:50:39.087Z,3.30
2019-01-06T15:53:22.487Z,3.30
2019-01-06T15:56:18.083Z,3.30
2019-01-06T15:59:13.484Z,3.30
2019-01-06T16:02:03.094Z,3.30
2019-01-06T16:04:58.764Z,3.30
2019-01-06T16:07:47.194Z,3.20
2019-01-06T16:10:51.908Z,3.30
2019-01-06T16:13:40.389Z,3.30
2019-01-06T16:16:27.320Z,3.30
2019-01-06T16:19:15.489Z,3.30
2019-01-06T16:22:00.290Z,3.20
2019-01-06T16:24:45.670Z,3.30
2019-01-06T16:27:38.020Z,3.30
2019-01-06T16:30:33.842Z,3.30
2019-01-06T16:33:22.462Z,3.30
2019-01-06T16:36:17.868Z,3.30
2019-01-06T16:39:06.205Z,3.30
2019-01-06T16:41:56.990Z,3.20
2019-01-06T16:44:46.547Z,3.20
2019-01-06T16:47:48.590Z,3.20
2019-01-06T16:50:47.093Z,3.20
2019-01-06T16:53:51.817Z,3.20
2019-01-06T16:56:56.684Z,3.20
2019-01-06T16:59:44.912Z,3.20
2019-01-06T17:02:37.495Z,3.20
2019-01-06T17:05:33.116Z,3.20
2019-01-06T17:08:18.675Z,3.20
2019-01-06T17:11:14.331Z,3.20
2019-01-06T17:14:12.850Z,3.20
2019-01-06T17:17:07.402Z,3.20
2019-01-06T17:20:06.025Z,3.20
2019-01-06T17:23:08.009Z,3.10
2019-01-06T17:26:13.523Z,3.20
2019-01-06T17:29:02.124Z,3.20
2019-01-06T17:31:50.677Z,3.20
2019-01-06T17:34:40.286Z,3.10
2019-01-06T17:37:38.099Z,3.20
2019-01-06T17:40:17.327Z,3.20
2019-01-06T17:43:03.867Z,3.20
2019-01-06T17:46:11.771Z,3.20
2019-01-06T17:49:00.031Z,3.10
2019-01-06T17:51:55.924Z,3.20
2019-01-06T17:54:51.336Z,3.10
2019-01-06T17:57:39.818Z,3.20
2019-01-06T18:00:35.668Z,3.20
2019-01-06T18:03:28.072Z,3.10
2019-01-06T18:06:23.493Z,3.00
2019-01-06T18:09:11.735Z,3.10
2019-01-06T18:12:16.437Z,3.10
2019-01-06T18:15:04.398Z,3.10
2019-01-06T18:17:52.959Z,3.10
2019-01-06T18:20:51.941Z,3.10
2019-01-06T18:23:40.401Z,3.10
2019-01-06T18:26:33.122Z,3.10
2019-01-06T18:29:18.362Z,3.10
2019-01-06T18:32:07.003Z,3.10
2019-01-06T18:35:05.957Z,3.10
2019-01-06T18:37:54.865Z,3.10
2019-01-06T18:40:43.608Z,3.10
2019-01-06T18:43:31.927Z,3.10
2019-01-06T18:46:16.477Z,3.10
2019-01-06T18:49:15.500Z,3.10
2019-01-06T18:52:03.681Z,3.00
2019-01-06T18:54:56.058Z,3.10
2019-01-06T18:57:46.324Z,3.00
2019-01-06T19:00:26.105Z,3.00
2019-01-06T19:03:18.632Z,3.00
2019-01-06T19:06:01.987Z,3.00
2019-01-06T19:08:50.262Z,3.00
2019-01-06T19:11:42.722Z,3.00
2019-01-06T19:14:32.284Z,2.90
2019-01-06T19:17:20.655Z,3.00
2019-01-06T19:20:08.956Z,3.00
2019-01-06T19:23:17.834Z,3.00
2019-01-06T19:26:03.520Z,2.90
2019-01-06T19:28:51.721Z,2.90
2019-01-06T19:31:40.198Z,2.90
2019-01-06T19:34:35.574Z,3.00
2019-01-06T19:37:22.513Z,3.00
2019-01-06T19:40:10.945Z,3.00
2019-01-06T19:43:15.952Z,3.00
2019-01-06T19:45:59.328Z,3.00
2019-01-06T19:48:48.918Z,2.90
2019-01-06T19:51:48.736Z,2.90
2019-01-06T19:54:44.465Z,2.90
2019-01-06T19:57:46.931Z,2.90
2019-01-06T20:00:30.288Z,2.90
2019-01-06T20:03:28.810Z,2.90
2019-01-06T20:06:26.385Z,2.90
2019-01-06T20:09:22.525Z,2.90
2019-01-06T20:12:15.171Z,3.00
2019-01-06T20:15:20.374Z,3.00
2019-01-06T20:18:15.924Z,3.00
2019-01-06T20:21:04.475Z,2.90
2019-01-06T20:23:54.179Z,2.90
2019-01-06T20:26:42.561Z,2.90
2019-01-06T20:29:33.597Z,2.90
2019-01-06T20:32:28.900Z,2.90
2019-01-06T20:35:30.816Z,3.00
2019-01-06T20:38:23.186Z,3.00
2019-01-06T20:41:28.221Z,3.00
2019-01-06T20:44:16.491Z,3.00
2019-01-06T20:47:16.775Z,2.90
2019-01-06T20:50:04.955Z,2.90
2019-01-06T20:52:53.748Z,2.90
2019-01-06T20:55:45.619Z,2.90
2019-01-06T20:58:35.178Z,2.90
2019-01-06T21:01:23.478Z,2.90
2019-01-06T21:04:19.521Z,2.90
2019-01-06T21:07:12.083Z,3.00
2019-01-06T21:10:04.775Z,3.00
2019-01-06T21:13:02.757Z,3.00
2019-01-06T21:15:55.278Z,3.00
2019-01-06T21:18:42.179Z,3.00
2019-01-06T21:21:37.852Z,3.00
2019-01-06T21:24:19.991Z,3.00
2019-01-06T21:27:08.641Z,3.00
2019-01-06T21:30:07.294Z,3.00
2019-01-06T21:32:54.184Z,3.00
2019-01-06T21:36:01.949Z,3.00
2019-01-06T21:38:54.741Z,3.00
2019-01-06T21:41:43.257Z,3.00
2019-01-06T21:44:42.115Z,3.00
2019-01-06T21:47:33.372Z,3.00
2019-01-06T21:50:21.746Z,3.00
2019-01-06T21:53:11.329Z,3.00
2019-01-06T21:56:05.049Z,3.00
2019-01-06T21:58:57.880Z,3.10
2019-01-06T22:01:46.341Z,3.10
2019-01-06T22:04:48.005Z,3.00
2019-01-06T22:07:37.535Z,3.10
2019-01-06T22:10:27.066Z,3.00
2019-01-06T22:13:10.106Z,3.00
2019-01-06T22:16:17.871Z,3.00
2019-01-06T22:19:05.981Z,3.00
2019-01-06T22:21:54.413Z,3.00
2019-01-06T22:24:46.573Z,3.00
2019-01-06T22:27:35.103Z,3.00
2019-01-06T22:30:32.058Z,3.00
2019-01-06T22:33:30.815Z,3.10
2019-01-06T22:36:21.000Z,3.10
2019-01-06T22:39:19.603Z,3.00
2019-01-06T22:42:26.479Z,3.00
2019-01-06T22:45:14.059Z,3.00
2019-01-06T22:48:02.780Z,3.00
2019-01-06T22:51:01.585Z,3.00
2019-01-06T22:53:51.476Z,3.00
2019-01-06T22:56:39.760Z,3.00
2019-01-06T22:59:31.216Z,3.00
2019-01-06T23:02:19.437Z,3.00
2019-01-06T23:05:08.350Z,3.00
2019-01-06T23:08:02.832Z,3.00
2019-01-06T23:10:52.461Z,3.00
2019-01-06T23:13:36.219Z,3.00
2019-01-06T23:16:28.702Z,3.00
2019-01-06T23:19:36.656Z,3.00
2019-01-06T23:22:24.919Z,3.00
2019-01-06T23:25:26.551Z,3.00
2019-01-06T23:28:22.113Z,3.10
2019-01-06T23:31:18.926Z,3.00
2019-01-06T23:34:07.297Z,3.00
2019-01-06T23:36:59.809Z,3.00
2019-01-06T23:39:58.520Z,3.10
2019-01-06T23:42:46.912Z,3.00
2019-01-06T23:45:35.144Z,3.00
2019-01-06T23:48:27.534Z,3.00
2019-01-06T23:51:17.086Z,3.00
2019-01-06T23:54:18.659Z,3.00
2019-01-06T23:57:14.203Z,3.10
